sensor_id;sensor_type;location;lat;lon;timestamp;temperature;humidity
6210;DHT22;3138;52.550;13.148;2023-07-02T00:01:20;17.10;99.90
6210;DHT22;3138;52.550;13.148;2023-07-02T00:03:47;17.00;99.90
6210;DHT22;3138;52.550;13.148;2023-07-02T00:06:14;17.00;99.90
6210;DHT22;3138;52.550;13.148;2023-07-02T00:08:43;17.10;99.90
6210;DHT22;3138;52.550;13.148;2023-07-02T00:11:10;17.10;99.90
6210;DHT22;3138;52.550;13.148;2023-07-02T00:13:39;17.10;99.90
6210;DHT22;3138;52.550;13.148;2023-07-02T00:16:06;17.00;99.90
6210;DHT22;3138;52.550;13.148;2023-07-02T00:18:33;17.00;99.90
6210;DHT22;3138;52.550;13.148;2023-07-02T00:21:00;17.00;99.90
6210;DHT22;3138;52.550;13.148;2023-07-02T00:23:28;17.00;99.90
6210;DHT22;3138;52.550;13.148;2023-07-02T00:25:55;17.00;99.90
6210;DHT22;3138;52.550;13.148;2023-07-02T00:28:22;17.00;99.90
6210;DHT22;3138;52.550;13.148;2023-07-02T00:30:51;17.00;99.90
6210;DHT22;3138;52.550;13.148;2023-07-02T00:33:17;16.90;99.90
6210;DHT22;3138;52.550;13.148;2023-07-02T00:35:44;16.90;99.90
6210;DHT22;3138;52.550;13.148;2023-07-02T00:38:11;16.90;99.90
6210;DHT22;3138;52.550;13.148;2023-07-02T00:40:38;16.90;99.90
6210;DHT22;3138;52.550;13.148;2023-07-02T00:43:05;16.90;99.90
6210;DHT22;3138;52.550;13.148;2023-07-02T00:45:32;16.90;99.90
6210;DHT22;3138;52.550;13.148;2023-07-02T00:48:00;16.90;99.90
6210;DHT22;3138;52.550;13.148;2023-07-02T00:50:27;16.90;99.90
6210;DHT22;3138;52.550;13.148;2023-07-02T00:52:54;17.00;99.90
6210;DHT22;3138;52.550;13.148;2023-07-02T00:55:21;16.90;99.90
6210;DHT22;3138;52.550;13.148;2023-07-02T00:57:48;16.90;99.90
6210;DHT22;3138;52.550;13.148;2023-07-02T01:00:16;16.90;99.90
6210;DHT22;3138;52.550;13.148;2023-07-02T01:02:43;16.90;99.90
6210;DHT22;3138;52.550;13.148;2023-07-02T01:05:15;16.90;99.90
6210;DHT22;3138;52.550;13.148;2023-07-02T01:07:42;16.80;99.90
6210;DHT22;3138;52.550;13.148;2023-07-02T01:10:09;16.80;99.90
6210;DHT22;3138;52.550;13.148;2023-07-02T01:12:36;16.80;99.90
6210;DHT22;3138;52.550;13.148;2023-07-02T01:15:05;16.80;99.90
6210;DHT22;3138;52.550;13.148;2023-07-02T01:17:34;16.80;99.90
6210;DHT22;3138;52.550;13.148;2023-07-02T01:20:10;16.80;99.90
6210;DHT22;3138;52.550;13.148;2023-07-02T01:22:37;16.80;99.90
6210;DHT22;3138;52.550;13.148;2023-07-02T01:25:05;16.80;99.90
6210;DHT22;3138;52.550;13.148;2023-07-02T01:27:34;16.80;99.90
6210;DHT22;3138;52.550;13.148;2023-07-02T01:30:01;16.80;99.90
6210;DHT22;3138;52.550;13.148;2023-07-02T01:32:29;16.80;99.90
6210;DHT22;3138;52.550;13.148;2023-07-02T01:34:56;16.70;99.90
6210;DHT22;3138;52.550;13.148;2023-07-02T01:37:27;16.70;99.90
6210;DHT22;3138;52.550;13.148;2023-07-02T01:39:54;16.70;99.90
6210;DHT22;3138;52.550;13.148;2023-07-02T01:42:21;16.60;99.90
6210;DHT22;3138;52.550;13.148;2023-07-02T01:44:48;16.70;99.90
6210;DHT22;3138;52.550;13.148;2023-07-02T01:47:17;16.60;99.90
6210;DHT22;3138;52.550;13.148;2023-07-02T01:49:45;16.60;99.90
6210;DHT22;3138;52.550;13.148;2023-07-02T01:52:12;16.60;99.90
6210;DHT22;3138;52.550;13.148;2023-07-02T01:54:40;16.50;99.90
6210;DHT22;3138;52.550;13.148;2023-07-02T01:57:07;16.50;99.90
6210;DHT22;3138;52.550;13.148;2023-07-02T01:59:34;16.50;99.90
6210;DHT22;3138;52.550;13.148;2023-07-02T02:02:01;16.40;99.90
6210;DHT22;3138;52.550;13.148;2023-07-02T02:04:28;16.40;99.90
6210;DHT22;3138;52.550;13.148;2023-07-02T02:06:55;16.40;99.90
6210;DHT22;3138;52.550;13.148;2023-07-02T02:09:22;16.40;99.90
6210;DHT22;3138;52.550;13.148;2023-07-02T02:11:50;16.40;99.90
6210;DHT22;3138;52.550;13.148;2023-07-02T02:14:18;16.40;99.90
6210;DHT22;3138;52.550;13.148;2023-07-02T02:16:44;16.30;99.90
6210;DHT22;3138;52.550;13.148;2023-07-02T02:19:12;16.30;99.90
6210;DHT22;3138;52.550;13.148;2023-07-02T02:21:40;16.30;99.90
6210;DHT22;3138;52.550;13.148;2023-07-02T02:24:07;16.30;99.90
6210;DHT22;3138;52.550;13.148;2023-07-02T02:26:34;16.20;99.90
6210;DHT22;3138;52.550;13.148;2023-07-02T02:29:02;16.20;99.90
6210;DHT22;3138;52.550;13.148;2023-07-02T02:31:29;16.20;99.90
6210;DHT22;3138;52.550;13.148;2023-07-02T02:33:56;16.20;99.90
6210;DHT22;3138;52.550;13.148;2023-07-02T02:36:23;16.20;99.90
6210;DHT22;3138;52.550;13.148;2023-07-02T02:38:50;16.20;99.90
6210;DHT22;3138;52.550;13.148;2023-07-02T02:41:17;16.10;99.90
6210;DHT22;3138;52.550;13.148;2023-07-02T02:43:43;16.00;99.90
6210;DHT22;3138;52.550;13.148;2023-07-02T02:46:12;16.00;99.90
6210;DHT22;3138;52.550;13.148;2023-07-02T02:48:39;15.90;99.90
6210;DHT22;3138;52.550;13.148;2023-07-02T02:51:06;15.90;99.90
6210;DHT22;3138;52.550;13.148;2023-07-02T02:53:32;15.90;99.90
6210;DHT22;3138;52.550;13.148;2023-07-02T02:55:59;15.90;99.90
6210;DHT22;3138;52.550;13.148;2023-07-02T02:58:26;15.90;99.90
6210;DHT22;3138;52.550;13.148;2023-07-02T03:00:53;15.90;99.90
6210;DHT22;3138;52.550;13.148;2023-07-02T03:03:22;15.80;99.90
6210;DHT22;3138;52.550;13.148;2023-07-02T03:05:50;15.80;99.90
6210;DHT22;3138;52.550;13.148;2023-07-02T03:08:17;15.80;99.90
6210;DHT22;3138;52.550;13.148;2023-07-02T03:10:44;15.80;99.90
6210;DHT22;3138;52.550;13.148;2023-07-02T03:13:11;15.90;99.90
6210;DHT22;3138;52.550;13.148;2023-07-02T03:15:37;15.90;99.90
6210;DHT22;3138;52.550;13.148;2023-07-02T03:18:04;15.90;99.90
6210;DHT22;3138;52.550;13.148;2023-07-02T03:20:33;15.90;99.90
6210;DHT22;3138;52.550;13.148;2023-07-02T03:22:59;15.90;99.90
6210;DHT22;3138;52.550;13.148;2023-07-02T03:25:26;15.90;99.90
6210;DHT22;3138;52.550;13.148;2023-07-02T03:27:53;15.90;99.90
6210;DHT22;3138;52.550;13.148;2023-07-02T03:30:20;15.90;99.90
6210;DHT22;3138;52.550;13.148;2023-07-02T03:32:47;15.90;99.90
6210;DHT22;3138;52.550;13.148;2023-07-02T03:35:14;15.90;99.90
6210;DHT22;3138;52.550;13.148;2023-07-02T03:37:42;15.90;99.90
6210;DHT22;3138;52.550;13.148;2023-07-02T03:40:09;15.90;99.90
6210;DHT22;3138;52.550;13.148;2023-07-02T03:42:36;15.90;99.90
6210;DHT22;3138;52.550;13.148;2023-07-02T03:45:04;15.90;99.90
6210;DHT22;3138;52.550;13.148;2023-07-02T03:47:31;15.90;99.90
6210;DHT22;3138;52.550;13.148;2023-07-02T03:49:57;15.90;99.90
6210;DHT22;3138;52.550;13.148;2023-07-02T03:52:24;15.90;99.90
6210;DHT22;3138;52.550;13.148;2023-07-02T03:54:52;16.00;99.90
6210;DHT22;3138;52.550;13.148;2023-07-02T03:57:19;16.00;99.90
6210;DHT22;3138;52.550;13.148;2023-07-02T03:59:46;16.00;99.90
6210;DHT22;3138;52.550;13.148;2023-07-02T04:02:13;16.10;99.90
6210;DHT22;3138;52.550;13.148;2023-07-02T04:04:40;16.10;99.90
6210;DHT22;3138;52.550;13.148;2023-07-02T04:07:07;16.20;99.90
6210;DHT22;3138;52.550;13.148;2023-07-02T04:09:33;16.20;99.90
6210;DHT22;3138;52.550;13.148;2023-07-02T04:12:02;16.30;99.90
6210;DHT22;3138;52.550;13.148;2023-07-02T04:14:29;17.10;99.90
6210;DHT22;3138;52.550;13.148;2023-07-02T04:16:56;16.80;99.90
6210;DHT22;3138;52.550;13.148;2023-07-02T04:19:22;17.00;99.90
6210;DHT22;3138;52.550;13.148;2023-07-02T04:21:49;17.30;99.90
6210;DHT22;3138;52.550;13.148;2023-07-02T04:24:16;17.10;99.90
6210;DHT22;3138;52.550;13.148;2023-07-02T04:26:43;17.30;99.90
6210;DHT22;3138;52.550;13.148;2023-07-02T04:29:11;17.40;99.90
6210;DHT22;3138;52.550;13.148;2023-07-02T04:31:38;17.50;99.90
6210;DHT22;3138;52.550;13.148;2023-07-02T04:34:05;17.20;99.90
6210;DHT22;3138;52.550;13.148;2023-07-02T04:36:32;17.10;99.90
6210;DHT22;3138;52.550;13.148;2023-07-02T04:38:59;16.80;99.90
6210;DHT22;3138;52.550;13.148;2023-07-02T04:41:26;16.90;99.90
6210;DHT22;3138;52.550;13.148;2023-07-02T04:43:55;17.10;99.90
6210;DHT22;3138;52.550;13.148;2023-07-02T04:46:23;17.30;99.90
6210;DHT22;3138;52.550;13.148;2023-07-02T04:48:50;17.20;99.90
6210;DHT22;3138;52.550;13.148;2023-07-02T04:51:17;17.50;99.90
6210;DHT22;3138;52.550;13.148;2023-07-02T04:53:44;17.60;99.90
6210;DHT22;3138;52.550;13.148;2023-07-02T04:56:11;17.60;99.90
6210;DHT22;3138;52.550;13.148;2023-07-02T04:58:37;17.60;99.90
6210;DHT22;3138;52.550;13.148;2023-07-02T05:01:04;17.60;99.90
6210;DHT22;3138;52.550;13.148;2023-07-02T05:03:32;17.50;99.90
6210;DHT22;3138;52.550;13.148;2023-07-02T05:06:00;17.50;99.90
6210;DHT22;3138;52.550;13.148;2023-07-02T05:08:26;17.50;99.90
6210;DHT22;3138;52.550;13.148;2023-07-02T05:10:53;17.60;99.90
6210;DHT22;3138;52.550;13.148;2023-07-02T05:13:20;17.50;99.90
6210;DHT22;3138;52.550;13.148;2023-07-02T05:15:47;17.70;99.90
6210;DHT22;3138;52.550;13.148;2023-07-02T05:18:14;17.70;99.90
6210;DHT22;3138;52.550;13.148;2023-07-02T05:20:42;17.90;99.90
6210;DHT22;3138;52.550;13.148;2023-07-02T05:23:09;18.10;99.90
6210;DHT22;3138;52.550;13.148;2023-07-02T05:25:36;18.40;99.90
6210;DHT22;3138;52.550;13.148;2023-07-02T05:28:03;18.20;99.90
6210;DHT22;3138;52.550;13.148;2023-07-02T05:30:30;18.40;99.90
6210;DHT22;3138;52.550;13.148;2023-07-02T05:32:57;18.30;99.90
6210;DHT22;3138;52.550;13.148;2023-07-02T05:35:23;18.30;99.90
6210;DHT22;3138;52.550;13.148;2023-07-02T05:37:52;18.60;99.90
6210;DHT22;3138;52.550;13.148;2023-07-02T05:40:18;18.60;99.90
6210;DHT22;3138;52.550;13.148;2023-07-02T05:42:45;18.90;99.90
6210;DHT22;3138;52.550;13.148;2023-07-02T05:45:12;18.80;99.90
6210;DHT22;3138;52.550;13.148;2023-07-02T05:47:39;19.20;99.90
6210;DHT22;3138;52.550;13.148;2023-07-02T05:50:08;19.10;99.90
6210;DHT22;3138;52.550;13.148;2023-07-02T05:52:35;19.00;99.90
6210;DHT22;3138;52.550;13.148;2023-07-02T05:55:04;18.90;99.90
6210;DHT22;3138;52.550;13.148;2023-07-02T05:57:31;18.90;99.90
6210;DHT22;3138;52.550;13.148;2023-07-02T05:59:57;18.90;99.90
6210;DHT22;3138;52.550;13.148;2023-07-02T06:02:24;18.40;99.90
6210;DHT22;3138;52.550;13.148;2023-07-02T06:04:52;18.20;99.90
6210;DHT22;3138;52.550;13.148;2023-07-02T06:07:19;18.10;99.90
6210;DHT22;3138;52.550;13.148;2023-07-02T06:09:46;18.10;99.90
6210;DHT22;3138;52.550;13.148;2023-07-02T06:12:14;18.10;99.90
6210;DHT22;3138;52.550;13.148;2023-07-02T06:14:41;18.00;99.90
6210;DHT22;3138;52.550;13.148;2023-07-02T06:17:08;17.90;99.90
6210;DHT22;3138;52.550;13.148;2023-07-02T06:19:36;17.90;99.90
6210;DHT22;3138;52.550;13.148;2023-07-02T06:22:03;18.00;99.90
6210;DHT22;3138;52.550;13.148;2023-07-02T06:24:30;18.20;99.90
6210;DHT22;3138;52.550;13.148;2023-07-02T06:26:57;18.20;99.90
6210;DHT22;3138;52.550;13.148;2023-07-02T06:29:25;18.30;99.90
6210;DHT22;3138;52.550;13.148;2023-07-02T06:31:54;18.70;99.90
6210;DHT22;3138;52.550;13.148;2023-07-02T06:34:20;18.70;99.90
6210;DHT22;3138;52.550;13.148;2023-07-02T06:36:48;19.20;99.90
6210;DHT22;3138;52.550;13.148;2023-07-02T06:39:15;19.50;99.90
6210;DHT22;3138;52.550;13.148;2023-07-02T06:41:41;19.60;99.90
6210;DHT22;3138;52.550;13.148;2023-07-02T06:44:08;19.50;99.90
6210;DHT22;3138;52.550;13.148;2023-07-02T06:46:36;19.30;99.90
6210;DHT22;3138;52.550;13.148;2023-07-02T06:49:03;19.40;99.90
6210;DHT22;3138;52.550;13.148;2023-07-02T06:51:30;19.40;99.90
6210;DHT22;3138;52.550;13.148;2023-07-02T06:53:57;19.40;99.90
6210;DHT22;3138;52.550;13.148;2023-07-02T06:56:24;19.40;99.90
6210;DHT22;3138;52.550;13.148;2023-07-02T06:58:51;19.60;99.90
6210;DHT22;3138;52.550;13.148;2023-07-02T07:01:18;19.30;99.90
6210;DHT22;3138;52.550;13.148;2023-07-02T07:03:46;19.60;99.90
6210;DHT22;3138;52.550;13.148;2023-07-02T07:06:13;19.90;99.90
6210;DHT22;3138;52.550;13.148;2023-07-02T07:08:40;19.80;99.90
6210;DHT22;3138;52.550;13.148;2023-07-02T07:11:07;19.80;99.90
6210;DHT22;3138;52.550;13.148;2023-07-02T07:13:34;19.50;99.90
6210;DHT22;3138;52.550;13.148;2023-07-02T07:16:01;19.60;99.90
6210;DHT22;3138;52.550;13.148;2023-07-02T07:18:28;19.90;99.90
6210;DHT22;3138;52.550;13.148;2023-07-02T07:20:56;20.60;99.90
6210;DHT22;3138;52.550;13.148;2023-07-02T07:23:23;20.00;99.90
6210;DHT22;3138;52.550;13.148;2023-07-02T07:25:50;20.10;99.90
6210;DHT22;3138;52.550;13.148;2023-07-02T07:28:17;20.10;99.90
6210;DHT22;3138;52.550;13.148;2023-07-02T07:30:44;20.00;99.90
6210;DHT22;3138;52.550;13.148;2023-07-02T07:33:11;19.90;99.90
6210;DHT22;3138;52.550;13.148;2023-07-02T07:35:38;19.70;99.90
6210;DHT22;3138;52.550;13.148;2023-07-02T07:38:06;19.70;99.90
6210;DHT22;3138;52.550;13.148;2023-07-02T07:40:33;19.30;99.90
6210;DHT22;3138;52.550;13.148;2023-07-02T07:42:59;18.90;99.90
6210;DHT22;3138;52.550;13.148;2023-07-02T07:45:26;18.90;99.90
6210;DHT22;3138;52.550;13.148;2023-07-02T07:47:53;18.80;99.90
6210;DHT22;3138;52.550;13.148;2023-07-02T07:50:20;18.80;99.90
6210;DHT22;3138;52.550;13.148;2023-07-02T07:52:48;18.60;99.90
6210;DHT22;3138;52.550;13.148;2023-07-02T07:55:16;18.80;99.90
6210;DHT22;3138;52.550;13.148;2023-07-02T07:57:43;18.90;99.90
6210;DHT22;3138;52.550;13.148;2023-07-02T08:00:11;18.70;99.90
6210;DHT22;3138;52.550;13.148;2023-07-02T08:02:38;18.60;99.90
6210;DHT22;3138;52.550;13.148;2023-07-02T08:05:05;18.80;99.90
6210;DHT22;3138;52.550;13.148;2023-07-02T08:07:32;18.70;99.90
6210;DHT22;3138;52.550;13.148;2023-07-02T08:09:59;18.50;99.90
6210;DHT22;3138;52.550;13.148;2023-07-02T08:12:29;18.60;99.90
6210;DHT22;3138;52.550;13.148;2023-07-02T08:14:56;18.50;99.90
6210;DHT22;3138;52.550;13.148;2023-07-02T08:17:23;18.50;99.90
6210;DHT22;3138;52.550;13.148;2023-07-02T08:19:49;18.50;99.90
6210;DHT22;3138;52.550;13.148;2023-07-02T08:22:16;18.50;99.90
6210;DHT22;3138;52.550;13.148;2023-07-02T08:24:43;18.50;99.90
6210;DHT22;3138;52.550;13.148;2023-07-02T08:27:10;18.50;99.90
6210;DHT22;3138;52.550;13.148;2023-07-02T08:29:40;18.60;99.90
6210;DHT22;3138;52.550;13.148;2023-07-02T08:32:07;18.50;99.90
6210;DHT22;3138;52.550;13.148;2023-07-02T08:34:34;18.60;99.90
6210;DHT22;3138;52.550;13.148;2023-07-02T08:37:01;18.60;99.90
6210;DHT22;3138;52.550;13.148;2023-07-02T08:39:28;18.50;99.90
6210;DHT22;3138;52.550;13.148;2023-07-02T08:41:55;18.70;99.90
6210;DHT22;3138;52.550;13.148;2023-07-02T08:44:22;18.70;99.90
6210;DHT22;3138;52.550;13.148;2023-07-02T08:46:50;18.80;99.90
6210;DHT22;3138;52.550;13.148;2023-07-02T08:49:20;18.80;99.90
6210;DHT22;3138;52.550;13.148;2023-07-02T08:51:47;19.00;99.90
6210;DHT22;3138;52.550;13.148;2023-07-02T08:54:17;19.20;99.90
6210;DHT22;3138;52.550;13.148;2023-07-02T08:56:44;19.10;99.90
6210;DHT22;3138;52.550;13.148;2023-07-02T08:59:11;19.50;99.90
6210;DHT22;3138;52.550;13.148;2023-07-02T09:01:45;19.50;99.90
6210;DHT22;3138;52.550;13.148;2023-07-02T09:04:18;19.90;99.90
6210;DHT22;3138;52.550;13.148;2023-07-02T09:06:45;20.00;99.90
6210;DHT22;3138;52.550;13.148;2023-07-02T09:09:12;20.30;99.90
6210;DHT22;3138;52.550;13.148;2023-07-02T09:11:49;20.30;99.90
6210;DHT22;3138;52.550;13.148;2023-07-02T09:14:26;20.20;99.90
6210;DHT22;3138;52.550;13.148;2023-07-02T09:17:04;20.50;99.90
6210;DHT22;3138;52.550;13.148;2023-07-02T09:19:32;20.80;99.90
6210;DHT22;3138;52.550;13.148;2023-07-02T09:21:59;20.90;99.70
6210;DHT22;3138;52.550;13.148;2023-07-02T09:24:27;20.70;97.90
6210;DHT22;3138;52.550;13.148;2023-07-02T09:26:56;20.10;95.60
6210;DHT22;3138;52.550;13.148;2023-07-02T09:29:24;20.30;95.80
6210;DHT22;3138;52.550;13.148;2023-07-02T09:31:52;20.70;93.80
6210;DHT22;3138;52.550;13.148;2023-07-02T09:34:19;20.60;94.90
6210;DHT22;3138;52.550;13.148;2023-07-02T09:36:47;20.80;95.00
6210;DHT22;3138;52.550;13.148;2023-07-02T09:39:19;20.50;96.20
6210;DHT22;3138;52.550;13.148;2023-07-02T09:41:48;20.70;93.40
6210;DHT22;3138;52.550;13.148;2023-07-02T09:44:17;21.60;96.60
6210;DHT22;3138;52.550;13.148;2023-07-02T09:46:52;21.80;93.70
6210;DHT22;3138;52.550;13.148;2023-07-02T09:49:20;21.50;91.60
6210;DHT22;3138;52.550;13.148;2023-07-02T09:51:50;21.50;93.50
6210;DHT22;3138;52.550;13.148;2023-07-02T09:54:17;21.60;91.30
6210;DHT22;3138;52.550;13.148;2023-07-02T09:56:46;21.60;93.00
6210;DHT22;3138;52.550;13.148;2023-07-02T09:59:13;21.60;89.60
6210;DHT22;3138;52.550;13.148;2023-07-02T10:01:40;21.90;90.70
6210;DHT22;3138;52.550;13.148;2023-07-02T10:04:13;22.20;87.70
6210;DHT22;3138;52.550;13.148;2023-07-02T10:06:47;22.00;86.00
6210;DHT22;3138;52.550;13.148;2023-07-02T10:09:17;22.20;86.60
6210;DHT22;3138;52.550;13.148;2023-07-02T10:11:44;21.80;86.00
6210;DHT22;3138;52.550;13.148;2023-07-02T10:14:11;22.00;85.90
6210;DHT22;3138;52.550;13.148;2023-07-02T10:16:52;22.70;84.20
6210;DHT22;3138;52.550;13.148;2023-07-02T10:19:19;22.20;82.10
6210;DHT22;3138;52.550;13.148;2023-07-02T10:21:47;21.70;81.60
6210;DHT22;3138;52.550;13.148;2023-07-02T10:24:17;22.30;83.20
6210;DHT22;3138;52.550;13.148;2023-07-02T10:26:54;22.70;78.30
6210;DHT22;3138;52.550;13.148;2023-07-02T10:29:22;22.90;77.50
6210;DHT22;3138;52.550;13.148;2023-07-02T10:31:50;22.90;72.80
6210;DHT22;3138;52.550;13.148;2023-07-02T10:34:27;21.80;67.00
6210;DHT22;3138;52.550;13.148;2023-07-02T10:36:54;21.60;73.70
6210;DHT22;3138;52.550;13.148;2023-07-02T10:39:22;21.50;72.50
6210;DHT22;3138;52.550;13.148;2023-07-02T10:41:49;21.30;70.60
6210;DHT22;3138;52.550;13.148;2023-07-02T10:44:16;21.60;69.60
6210;DHT22;3138;52.550;13.148;2023-07-02T10:46:44;21.20;69.90
6210;DHT22;3138;52.550;13.148;2023-07-02T10:49:11;21.10;73.90
6210;DHT22;3138;52.550;13.148;2023-07-02T10:51:38;20.70;71.30
6210;DHT22;3138;52.550;13.148;2023-07-02T10:54:05;20.80;70.20
6210;DHT22;3138;52.550;13.148;2023-07-02T10:56:34;20.80;68.50
6210;DHT22;3138;52.550;13.148;2023-07-02T10:59:01;20.70;69.10
6210;DHT22;3138;52.550;13.148;2023-07-02T11:01:30;20.50;70.80
6210;DHT22;3138;52.550;13.148;2023-07-02T11:03:58;21.10;70.90
6210;DHT22;3138;52.550;13.148;2023-07-02T11:06:26;21.10;64.60
6210;DHT22;3138;52.550;13.148;2023-07-02T11:08:53;21.50;69.70
6210;DHT22;3138;52.550;13.148;2023-07-02T11:11:21;21.70;61.60
6210;DHT22;3138;52.550;13.148;2023-07-02T11:13:51;22.10;62.90
6210;DHT22;3138;52.550;13.148;2023-07-02T11:16:20;22.00;61.30
6210;DHT22;3138;52.550;13.148;2023-07-02T11:18:48;22.10;57.80
6210;DHT22;3138;52.550;13.148;2023-07-02T11:21:15;21.90;50.40
6210;DHT22;3138;52.550;13.148;2023-07-02T11:23:42;22.00;49.00
6210;DHT22;3138;52.550;13.148;2023-07-02T11:26:08;21.80;48.70
6210;DHT22;3138;52.550;13.148;2023-07-02T11:28:35;21.60;53.20
6210;DHT22;3138;52.550;13.148;2023-07-02T11:31:04;22.20;51.10
6210;DHT22;3138;52.550;13.148;2023-07-02T11:33:34;22.50;51.30
6210;DHT22;3138;52.550;13.148;2023-07-02T11:36:01;22.80;47.90
6210;DHT22;3138;52.550;13.148;2023-07-02T11:38:28;22.70;39.00
6210;DHT22;3138;52.550;13.148;2023-07-02T11:40:55;22.20;36.10
6210;DHT22;3138;52.550;13.148;2023-07-02T11:43:22;22.20;35.50
6210;DHT22;3138;52.550;13.148;2023-07-02T11:45:49;22.70;37.90
6210;DHT22;3138;52.550;13.148;2023-07-02T11:48:17;23.00;37.90
6210;DHT22;3138;52.550;13.148;2023-07-02T11:50:44;22.70;40.60
6210;DHT22;3138;52.550;13.148;2023-07-02T11:53:10;23.30;37.60
6210;DHT22;3138;52.550;13.148;2023-07-02T11:55:37;23.40;34.30
6210;DHT22;3138;52.550;13.148;2023-07-02T11:58:04;23.40;37.30
6210;DHT22;3138;52.550;13.148;2023-07-02T12:00:31;23.60;36.30
6210;DHT22;3138;52.550;13.148;2023-07-02T12:02:58;24.00;34.00
6210;DHT22;3138;52.550;13.148;2023-07-02T12:05:26;24.20;30.90
6210;DHT22;3138;52.550;13.148;2023-07-02T12:07:53;23.80;28.50
6210;DHT22;3138;52.550;13.148;2023-07-02T12:10:20;24.20;33.80
6210;DHT22;3138;52.550;13.148;2023-07-02T12:12:46;23.10;27.30
6210;DHT22;3138;52.550;13.148;2023-07-02T12:15:13;22.60;29.00
6210;DHT22;3138;52.550;13.148;2023-07-02T12:17:40;22.50;29.10
6210;DHT22;3138;52.550;13.148;2023-07-02T12:20:08;22.00;28.40
6210;DHT22;3138;52.550;13.148;2023-07-02T12:22:36;21.90;30.70
6210;DHT22;3138;52.550;13.148;2023-07-02T12:25:04;22.80;33.50
6210;DHT22;3138;52.550;13.148;2023-07-02T12:27:31;23.30;27.90
6210;DHT22;3138;52.550;13.148;2023-07-02T12:29:58;24.00;27.20
6210;DHT22;3138;52.550;13.148;2023-07-02T12:32:25;23.30;22.90
6210;DHT22;3138;52.550;13.148;2023-07-02T12:34:52;23.40;25.50
6210;DHT22;3138;52.550;13.148;2023-07-02T12:37:19;22.90;18.30
6210;DHT22;3138;52.550;13.148;2023-07-02T12:39:47;22.60;20.20
6210;DHT22;3138;52.550;13.148;2023-07-02T12:42:14;22.40;22.50
6210;DHT22;3138;52.550;13.148;2023-07-02T12:44:41;22.00;22.60
6210;DHT22;3138;52.550;13.148;2023-07-02T12:47:08;21.50;25.70
6210;DHT22;3138;52.550;13.148;2023-07-02T12:49:35;21.30;27.30
6210;DHT22;3138;52.550;13.148;2023-07-02T12:52:03;21.10;25.90
6210;DHT22;3138;52.550;13.148;2023-07-02T12:54:29;21.20;28.00
6210;DHT22;3138;52.550;13.148;2023-07-02T12:56:58;22.00;29.30
6210;DHT22;3138;52.550;13.148;2023-07-02T12:59:24;22.30;25.70
6210;DHT22;3138;52.550;13.148;2023-07-02T13:01:51;22.70;24.00
6210;DHT22;3138;52.550;13.148;2023-07-02T13:04:18;23.10;23.00
6210;DHT22;3138;52.550;13.148;2023-07-02T13:06:45;23.00;20.00
6210;DHT22;3138;52.550;13.148;2023-07-02T13:09:12;23.40;22.00
6210;DHT22;3138;52.550;13.148;2023-07-02T13:11:39;23.50;17.30
6210;DHT22;3138;52.550;13.148;2023-07-02T13:14:07;23.40;18.20
6210;DHT22;3138;52.550;13.148;2023-07-02T13:16:34;22.80;20.90
6210;DHT22;3138;52.550;13.148;2023-07-02T13:19:00;22.70;17.70
6210;DHT22;3138;52.550;13.148;2023-07-02T13:21:28;22.60;15.20
6210;DHT22;3138;52.550;13.148;2023-07-02T13:23:54;23.00;13.60
6210;DHT22;3138;52.550;13.148;2023-07-02T13:26:21;22.60;14.90
6210;DHT22;3138;52.550;13.148;2023-07-02T13:28:48;22.70;15.00
6210;DHT22;3138;52.550;13.148;2023-07-02T13:31:16;23.30;16.00
6210;DHT22;3138;52.550;13.148;2023-07-02T13:33:43;22.80;15.10
6210;DHT22;3138;52.550;13.148;2023-07-02T13:36:11;23.00;15.40
6210;DHT22;3138;52.550;13.148;2023-07-02T13:38:38;23.10;16.30
6210;DHT22;3138;52.550;13.148;2023-07-02T13:41:05;22.80;14.60
6210;DHT22;3138;52.550;13.148;2023-07-02T13:43:32;22.40;14.40
6210;DHT22;3138;52.550;13.148;2023-07-02T13:45:59;22.20;17.10
6210;DHT22;3138;52.550;13.148;2023-07-02T13:48:28;22.50;18.20
6210;DHT22;3138;52.550;13.148;2023-07-02T13:50:55;22.40;15.40
6210;DHT22;3138;52.550;13.148;2023-07-02T13:53:22;22.20;18.10
6210;DHT22;3138;52.550;13.148;2023-07-02T13:55:48;22.20;17.60
6210;DHT22;3138;52.550;13.148;2023-07-02T13:58:15;22.70;14.20
6210;DHT22;3138;52.550;13.148;2023-07-02T14:00:43;23.00;14.70
6210;DHT22;3138;52.550;13.148;2023-07-02T14:03:10;23.30;16.30
6210;DHT22;3138;52.550;13.148;2023-07-02T14:05:37;22.80;15.00
6210;DHT22;3138;52.550;13.148;2023-07-02T14:08:04;22.60;12.80
6210;DHT22;3138;52.550;13.148;2023-07-02T14:10:31;23.30;12.10
6210;DHT22;3138;52.550;13.148;2023-07-02T14:12:57;23.00;10.30
6210;DHT22;3138;52.550;13.148;2023-07-02T14:15:25;23.30;11.00
6210;DHT22;3138;52.550;13.148;2023-07-02T14:17:54;23.40;8.80
6210;DHT22;3138;52.550;13.148;2023-07-02T14:20:21;23.90;10.00
6210;DHT22;3138;52.550;13.148;2023-07-02T14:22:48;23.70;11.20
6210;DHT22;3138;52.550;13.148;2023-07-02T14:25:15;22.60;7.10
6210;DHT22;3138;52.550;13.148;2023-07-02T14:27:41;22.90;10.60
6210;DHT22;3138;52.550;13.148;2023-07-02T14:30:09;23.00;8.50
6210;DHT22;3138;52.550;13.148;2023-07-02T14:32:36;22.90;7.40
6210;DHT22;3138;52.550;13.148;2023-07-02T14:35:06;23.00;9.60
6210;DHT22;3138;52.550;13.148;2023-07-02T14:37:33;22.70;7.50
6210;DHT22;3138;52.550;13.148;2023-07-02T14:40:00;22.60;6.50
6210;DHT22;3138;52.550;13.148;2023-07-02T14:42:27;22.60;6.80
6210;DHT22;3138;52.550;13.148;2023-07-02T14:44:54;22.20;4.80
6210;DHT22;3138;52.550;13.148;2023-07-02T14:47:21;22.90;7.30
6210;DHT22;3138;52.550;13.148;2023-07-02T14:49:48;22.90;4.60
6210;DHT22;3138;52.550;13.148;2023-07-02T14:52:16;23.20;8.70
6210;DHT22;3138;52.550;13.148;2023-07-02T14:54:44;22.90;4.80
6210;DHT22;3138;52.550;13.148;2023-07-02T14:57:11;22.50;7.80
6210;DHT22;3138;52.550;13.148;2023-07-02T14:59:38;22.80;7.50
6210;DHT22;3138;52.550;13.148;2023-07-02T15:02:06;23.50;8.90
6210;DHT22;3138;52.550;13.148;2023-07-02T15:04:33;23.60;8.10
6210;DHT22;3138;52.550;13.148;2023-07-02T15:07:00;23.20;5.30
6210;DHT22;3138;52.550;13.148;2023-07-02T15:09:28;23.20;7.50
6210;DHT22;3138;52.550;13.148;2023-07-02T15:11:55;23.40;7.80
6210;DHT22;3138;52.550;13.148;2023-07-02T15:14:22;23.20;7.40
6210;DHT22;3138;52.550;13.148;2023-07-02T15:16:49;23.70;11.60
6210;DHT22;3138;52.550;13.148;2023-07-02T15:19:16;23.90;10.60
6210;DHT22;3138;52.550;13.148;2023-07-02T15:21:43;23.40;5.50
6210;DHT22;3138;52.550;13.148;2023-07-02T15:24:10;23.40;5.60
6210;DHT22;3138;52.550;13.148;2023-07-02T15:26:41;22.50;5.00
6210;DHT22;3138;52.550;13.148;2023-07-02T15:29:08;22.10;5.90
6210;DHT22;3138;52.550;13.148;2023-07-02T15:31:35;22.10;7.20
6210;DHT22;3138;52.550;13.148;2023-07-02T15:34:06;22.50;7.90
6210;DHT22;3138;52.550;13.148;2023-07-02T15:36:33;22.30;8.00
6210;DHT22;3138;52.550;13.148;2023-07-02T15:39:01;22.00;6.80
6210;DHT22;3138;52.550;13.148;2023-07-02T15:41:28;21.90;9.50
6210;DHT22;3138;52.550;13.148;2023-07-02T15:43:56;22.00;10.40
6210;DHT22;3138;52.550;13.148;2023-07-02T15:46:28;22.10;5.10
6210;DHT22;3138;52.550;13.148;2023-07-02T15:48:55;22.60;6.20